Time;durP1;ratioP1;P1;durP2;ratioP2;P2;SDS_P1;SDS_P2;PMS_P1;PMS_P2;Temp;Humidity;BMP_temperature;BMP_pressure;BME280_temperature;BME280_humidity;BME280_pressure;Samples;Min_cycle;Max_cycle;Signal;HPM_P1;HPM_P2
2022/03/04 00:01:54;;;;;;;23.40;12.15;;;-1.70;99.90;;;;;;5096442;28;20035;-70
2022/03/04 00:04:19;;;;;;;22.15;11.82;;;-1.70;99.90;;;;;;5096112;28;20032;-70
2022/03/04 00:06:45;;;;;;;29.05;13.32;;;-1.70;99.90;;;;;;5096030;28;20040;-70
2022/03/04 00:09:10;;;;;;;25.33;13.50;;;-1.70;99.90;;;;;;5095915;28;20040;-70
2022/03/04 00:11:36;;;;;;;25.15;13.02;;;-1.70;99.90;;;;;;5095955;28;20437;-70
2022/03/04 00:14:02;;;;;;;19.50;12.05;;;-1.70;99.90;;;;;;5095906;28;20047;-70
2022/03/04 00:16:27;;;;;;;25.98;13.60;;;-1.70;99.90;;;;;;5095926;28;20064;-70
2022/03/04 00:19:12;;;;;;;23.17;13.13;;;-1.70;99.90;;;;;;5096043;28;20117;-70
2022/03/04 00:21:48;;;;;;;36.13;12.98;;;-1.70;99.90;;;;;;5095812;28;20024;-70
2022/03/04 00:24:19;;;;;;;23.17;12.40;;;-1.70;99.90;;;;;;5096338;28;20048;-70
2022/03/04 00:26:45;;;;;;;21.13;12.20;;;-1.80;99.90;;;;;;5096041;28;20376;-70
2022/03/04 00:29:11;;;;;;;25.85;12.43;;;-1.90;99.90;;;;;;5095970;28;20100;-70
2022/03/04 00:31:37;;;;;;;26.85;12.60;;;-1.90;99.90;;;;;;5095195;28;20031;-70
2022/03/04 00:34:06;;;;;;;32.28;13.02;;;-1.90;99.90;;;;;;5095829;28;20024;-70
2022/03/04 00:36:41;;;;;;;23.70;13.90;;;-2.00;99.90;;;;;;5095739;28;20023;-70
2022/03/04 00:39:12;;;;;;;28.13;14.18;;;-2.00;99.90;;;;;;5095595;28;20024;-70
2022/03/04 00:41:39;;;;;;;29.88;14.35;;;-2.00;99.90;;;;;;5095763;28;20020;-70
2022/03/04 00:44:05;;;;;;;29.88;13.93;;;-2.00;99.90;;;;;;5095377;28;20024;-70
2022/03/04 00:46:31;;;;;;;35.35;15.18;;;-2.00;99.90;;;;;;5095424;28;20024;-70
2022/03/04 00:48:56;;;;;;;25.88;14.07;;;-2.00;99.90;;;;;;5095210;28;20033;-70
2022/03/04 00:51:22;;;;;;;33.13;16.65;;;-2.00;99.90;;;;;;5095701;28;20027;-70
2022/03/04 00:53:48;;;;;;;28.20;15.95;;;-2.00;99.90;;;;;;5095275;28;20494;-70
2022/03/04 00:56:13;;;;;;;31.73;13.48;;;-2.00;99.90;;;;;;5095192;28;20070;-70
2022/03/04 00:58:40;;;;;;;29.33;14.52;;;-2.00;99.90;;;;;;5095012;28;20024;-70
2022/03/04 01:01:06;;;;;;;29.60;14.93;;;-2.00;99.90;;;;;;5094974;28;20471;-70
2022/03/04 01:03:33;;;;;;;29.42;13.80;;;-2.00;99.90;;;;;;5094998;28;20020;-70
2022/03/04 01:06:00;;;;;;;31.17;14.07;;;-2.10;99.90;;;;;;5094889;28;20027;-70
2022/03/04 01:08:26;;;;;;;29.08;14.10;;;-2.10;99.90;;;;;;5095110;28;20116;-70
2022/03/04 01:10:52;;;;;;;29.05;15.43;;;-2.20;99.90;;;;;;5094758;28;20486;-70
2022/03/04 01:13:17;;;;;;;33.60;15.10;;;-2.20;99.90;;;;;;5094730;28;20544;-70
2022/03/04 01:15:43;;;;;;;32.80;15.77;;;-2.20;99.90;;;;;;5094746;28;20496;-70
2022/03/04 01:18:09;;;;;;;29.70;14.90;;;-2.20;99.90;;;;;;5095248;28;20024;-70
2022/03/04 01:20:35;;;;;;;29.80;14.85;;;-2.20;99.90;;;;;;5094573;28;20020;-70
2022/03/04 01:23:01;;;;;;;24.23;14.13;;;-2.20;99.90;;;;;;5094597;28;20535;-70
2022/03/04 01:25:27;;;;;;;31.23;15.48;;;-2.20;99.90;;;;;;5094563;28;20483;-70
2022/03/04 01:27:53;;;;;;;30.33;15.57;;;-2.20;99.90;;;;;;5094784;28;20065;-70
2022/03/04 01:30:19;;;;;;;30.63;15.35;;;-2.20;99.90;;;;;;5094371;28;20036;-70
2022/03/04 01:32:45;;;;;;;30.02;16.00;;;-2.30;99.90;;;;;;5094316;28;20020;-70
2022/03/04 01:35:11;;;;;;;29.30;14.90;;;-2.30;99.90;;;;;;5094353;28;20180;-70
2022/03/04 01:37:37;;;;;;;34.17;15.27;;;-2.30;99.90;;;;;;5094631;28;20030;-70
2022/03/04 01:40:05;;;;;;;28.67;14.65;;;-2.30;99.90;;;;;;5094375;28;20016;-70
2022/03/04 01:42:31;;;;;;;35.30;15.32;;;-2.30;99.90;;;;;;5094553;28;20391;-71
2022/03/04 01:44:57;;;;;;;33.58;16.10;;;-2.40;99.90;;;;;;5093819;28;20020;-71
2022/03/04 01:47:22;;;;;;;32.22;15.02;;;-2.40;99.90;;;;;;5094647;28;20028;-70
2022/03/04 01:49:48;;;;;;;29.17;15.43;;;-2.40;99.90;;;;;;5094077;28;20476;-70
2022/03/04 01:52:14;;;;;;;33.30;16.92;;;-2.50;99.90;;;;;;5093994;28;20111;-70
2022/03/04 01:54:40;;;;;;;31.10;15.52;;;-2.60;99.90;;;;;;5094066;28;20020;-70
2022/03/04 01:57:06;;;;;;;29.80;15.18;;;-2.60;99.90;;;;;;5094006;28;20380;-70
2022/03/04 01:59:31;;;;;;;28.83;15.88;;;-2.60;99.90;;;;;;5093886;28;20031;-70
2022/03/04 02:01:57;;;;;;;29.60;15.50;;;-2.60;99.90;;;;;;5094167;28;20020;-70
2022/03/04 02:04:24;;;;;;;29.73;16.15;;;-2.60;99.90;;;;;;5094041;28;20471;-70
2022/03/04 02:06:51;;;;;;;36.00;15.63;;;-2.60;99.90;;;;;;5094124;28;20020;-70
2022/03/04 02:09:17;;;;;;;30.55;15.00;;;-2.60;99.90;;;;;;5094010;28;20103;-70
2022/03/04 02:11:44;;;;;;;24.55;14.45;;;-2.60;99.90;;;;;;5094018;28;20032;-70
2022/03/04 02:14:13;;;;;;;26.13;14.40;;;-2.70;99.90;;;;;;5093839;28;20020;-70
2022/03/04 02:16:43;;;;;;;28.85;15.68;;;-2.70;99.90;;;;;;5093715;28;20020;-70
2022/03/04 02:19:09;;;;;;;35.35;16.10;;;-2.80;99.90;;;;;;5093685;28;20031;-70
2022/03/04 02:21:35;;;;;;;25.77;14.70;;;-2.90;99.90;;;;;;5093955;28;20043;-71
2022/03/04 02:24:00;;;;;;;28.48;14.50;;;-2.90;99.90;;;;;;5093709;28;20066;-70
2022/03/04 02:26:26;;;;;;;35.83;15.75;;;-2.90;99.90;;;;;;5093874;28;20103;-70
2022/03/04 02:28:52;;;;;;;31.15;16.08;;;-2.90;99.90;;;;;;5093963;28;20024;-70
2022/03/04 02:31:19;;;;;;;27.95;15.65;;;-2.90;99.90;;;;;;5093844;28;20107;-70
2022/03/04 02:33:46;;;;;;;27.38;14.15;;;-2.80;99.90;;;;;;5093492;28;20032;-72
2022/03/04 02:36:12;;;;;;;26.90;14.70;;;-2.90;99.90;;;;;;5093816;28;20051;-70
2022/03/04 02:38:38;;;;;;;23.33;13.40;;;-3.00;99.90;;;;;;5093825;28;20036;-70
2022/03/04 02:41:04;;;;;;;25.45;14.60;;;-3.10;99.90;;;;;;5093581;28;20425;-70
2022/03/04 02:43:30;;;;;;;28.30;14.32;;;-3.10;99.90;;;;;;5093408;28;20384;-70
2022/03/04 02:45:56;;;;;;;26.27;14.57;;;-3.10;99.90;;;;;;5093419;28;20372;-70
2022/03/04 02:48:21;;;;;;;28.63;15.75;;;-3.10;99.90;;;;;;5093648;28;20057;-70
2022/03/04 02:50:47;;;;;;;29.40;15.45;;;-3.00;99.90;;;;;;5093259;28;20032;-70
2022/03/04 02:53:12;;;;;;;31.60;16.85;;;-3.00;99.90;;;;;;5093505;28;20025;-70
2022/03/04 02:55:38;;;;;;;39.35;17.30;;;-3.00;99.90;;;;;;5095700;28;20026;-70
2022/03/04 02:58:03;;;;;;;33.40;15.18;;;-3.10;99.90;;;;;;5097772;28;20405;-70
2022/03/04 03:00:29;;;;;;;32.60;15.23;;;-3.10;99.90;;;;;;5097325;28;20012;-70
2022/03/04 03:02:55;;;;;;;26.48;14.88;;;-3.10;99.90;;;;;;5097304;28;20085;-70
2022/03/04 03:05:20;;;;;;;24.75;14.27;;;-3.10;99.90;;;;;;5097315;28;20036;-70
2022/03/04 03:07:46;;;;;;;30.23;14.95;;;-3.10;99.90;;;;;;5097233;28;20067;-70
2022/03/04 03:10:12;;;;;;;30.50;15.32;;;-3.10;99.90;;;;;;5102653;22;20040;-69
2022/03/04 03:12:42;;;;;;;25.70;14.15;;;-3.10;99.90;;;;;;5076749;28;20040;-70
2022/03/04 03:15:09;;;;;;;31.58;14.88;;;-3.20;99.90;;;;;;5076825;28;20020;-71
2022/03/04 03:17:34;;;;;;;26.48;13.90;;;-3.20;99.90;;;;;;5076774;28;20064;-70
2022/03/04 03:20:01;;;;;;;25.63;14.63;;;-3.30;99.90;;;;;;5076941;28;20055;-71
2022/03/04 03:22:27;;;;;;;34.85;17.25;;;-3.40;99.90;;;;;;5076660;28;20025;-70
2022/03/04 03:24:53;;;;;;;32.67;17.50;;;-3.30;99.90;;;;;;5076687;28;20392;-70
2022/03/04 03:27:18;;;;;;;29.58;15.80;;;-3.40;99.90;;;;;;5076600;28;20044;-70
2022/03/04 03:29:44;;;;;;;30.70;15.95;;;-3.40;99.90;;;;;;5076760;28;20047;-70
2022/03/04 03:32:10;;;;;;;28.73;16.02;;;-3.50;99.90;;;;;;5076446;28;20031;-71
2022/03/04 03:34:36;;;;;;;33.15;15.77;;;-3.50;99.90;;;;;;5076424;28;20134;-71
2022/03/04 03:37:02;;;;;;;33.47;17.05;;;-3.50;99.90;;;;;;5076636;28;20021;-70
2022/03/04 03:39:28;;;;;;;32.15;15.30;;;-3.40;99.90;;;;;;5076261;28;20027;-70
2022/03/04 03:41:54;;;;;;;31.98;16.38;;;-3.30;99.90;;;;;;5076330;28;20024;-71
2022/03/04 03:44:19;;;;;;;29.55;15.30;;;-3.40;99.90;;;;;;5076529;28;20449;-70
2022/03/04 03:46:45;;;;;;;27.15;14.98;;;-3.50;99.90;;;;;;5076242;28;20029;-71
2022/03/04 03:49:11;;;;;;;31.48;15.60;;;-3.50;99.90;;;;;;5076095;28;20029;-71
2022/03/04 03:51:37;;;;;;;29.60;16.77;;;-3.50;99.90;;;;;;5076596;28;20089;-70
2022/03/04 03:54:02;;;;;;;29.05;16.52;;;-3.60;99.90;;;;;;5076070;28;20036;-70
2022/03/04 03:56:28;;;;;;;29.90;16.10;;;-3.60;99.90;;;;;;5076574;28;20105;-71
2022/03/04 03:58:53;;;;;;;39.67;16.38;;;-3.60;99.90;;;;;;5076284;28;20488;-71
2022/03/04 04:01:19;;;;;;;27.90;16.10;;;-3.60;99.90;;;;;;5075864;28;20028;-70
2022/03/04 04:03:45;;;;;;;25.52;14.73;;;-3.60;99.90;;;;;;5075964;28;20074;-71
2022/03/04 04:06:11;;;;;;;34.08;16.63;;;-3.60;99.90;;;;;;5075383;28;20025;-70
2022/03/04 04:08:36;;;;;;;34.55;17.55;;;-3.70;99.90;;;;;;5075754;28;20052;-71
2022/03/04 04:11:02;;;;;;;33.00;16.67;;;-3.70;99.90;;;;;;5075652;28;20086;-70
2022/03/04 04:13:27;;;;;;;34.63;18.83;;;-3.70;99.90;;;;;;5075958;28;20112;-70
2022/03/04 04:15:53;;;;;;;35.50;17.08;;;-3.70;99.90;;;;;;5075782;28;20031;-71
2022/03/04 04:18:19;;;;;;;29.13;16.85;;;-3.70;99.90;;;;;;5075681;28;20357;-71
2022/03/04 04:20:44;;;;;;;43.72;17.42;;;-3.80;99.90;;;;;;5075518;28;20053;-70
2022/03/04 04:23:10;;;;;;;41.90;17.73;;;-3.80;99.90;;;;;;5075862;28;20115;-70
2022/03/04 04:25:35;;;;;;;37.40;18.38;;;-3.80;99.90;;;;;;5075549;28;20035;-70
2022/03/04 04:28:01;;;;;;;39.80;17.98;;;-3.80;99.90;;;;;;5075749;28;20032;-70
2022/03/04 04:30:26;;;;;;;30.50;15.73;;;-3.90;99.90;;;;;;5075247;28;20071;-70
2022/03/04 04:32:52;;;;;;;37.28;18.00;;;-3.90;99.90;;;;;;5075325;28;20024;-70
2022/03/04 04:35:17;;;;;;;34.38;16.90;;;-3.90;99.90;;;;;;5075406;28;20017;-70
2022/03/04 04:37:43;;;;;;;33.72;17.17;;;-3.90;99.90;;;;;;5075258;28;20424;-70
2022/03/04 04:40:09;;;;;;;33.13;16.30;;;-4.00;99.90;;;;;;5073901;28;20415;-70
2022/03/04 04:42:35;;;;;;;37.15;18.23;;;-4.00;99.90;;;;;;5075517;28;20464;-70
2022/03/04 04:45:01;;;;;;;32.35;15.70;;;-4.10;99.90;;;;;;5075412;28;20040;-70
2022/03/04 04:47:26;;;;;;;37.10;18.02;;;-4.10;99.90;;;;;;5075149;28;20083;-71
2022/03/04 04:49:52;;;;;;;28.50;16.45;;;-4.10;99.90;;;;;;5074999;28;20025;-70
2022/03/04 04:52:18;;;;;;;29.50;17.38;;;-4.10;99.90;;;;;;5074865;28;20021;-71
2022/03/04 04:54:43;;;;;;;36.25;17.23;;;-4.20;99.90;;;;;;5075488;28;20052;-70
2022/03/04 04:57:09;;;;;;;32.65;16.45;;;-4.20;99.90;;;;;;5075138;28;20103;-70
2022/03/04 04:59:35;;;;;;;35.95;18.05;;;-4.20;99.90;;;;;;5074837;28;20078;-70
2022/03/04 05:02:01;;;;;;;33.17;18.40;;;-4.20;99.90;;;;;;5075004;28;20492;-70
2022/03/04 05:04:26;;;;;;;30.20;16.33;;;-4.30;99.90;;;;;;5074851;28;20035;-71
2022/03/04 05:06:52;;;;;;;35.17;18.35;;;-4.20;99.90;;;;;;5074687;28;20100;-71
2022/03/04 05:09:18;;;;;;;33.47;18.80;;;-4.20;99.90;;;;;;5074675;28;20020;-70
2022/03/04 05:11:43;;;;;;;35.00;18.55;;;-4.20;99.90;;;;;;5074790;28;20032;-70
2022/03/04 05:14:09;;;;;;;40.95;20.45;;;-4.10;99.90;;;;;;5074812;28;20099;-70
2022/03/04 05:16:36;;;;;;;48.47;22.02;;;-4.10;99.90;;;;;;5073227;28;20154;-71
2022/03/04 05:19:01;;;;;;;53.85;24.25;;;-4.10;99.90;;;;;;5073761;28;20483;-70
2022/03/04 05:21:27;;;;;;;52.30;25.25;;;-4.10;99.90;;;;;;5074404;28;20048;-70
2022/03/04 05:24:02;;;;;;;58.55;26.52;;;-4.10;99.90;;;;;;5074338;28;20025;-70
2022/03/04 05:26:38;;;;;;;57.60;25.35;;;-4.00;99.90;;;;;;5074491;28;20047;-71
2022/03/04 05:29:09;;;;;;;53.95;23.77;;;-3.90;99.90;;;;;;5074835;28;20067;-71
2022/03/04 05:31:35;;;;;;;52.60;25.13;;;-3.90;99.90;;;;;;5074471;28;20028;-70
2022/03/04 05:34:00;;;;;;;68.80;27.13;;;-3.70;99.90;;;;;;5074409;28;20082;-70
2022/03/04 05:36:26;;;;;;;53.10;22.55;;;-3.70;99.90;;;;;;5074135;28;20025;-70
2022/03/04 05:38:52;;;;;;;53.20;25.05;;;-3.70;99.90;;;;;;5074120;28;20537;-70
2022/03/04 05:41:18;;;;;;;52.00;22.85;;;-3.90;99.90;;;;;;5073961;28;20029;-70
2022/03/04 05:43:45;;;;;;;59.58;24.25;;;-4.00;99.90;;;;;;5074239;28;20032;-70
2022/03/04 05:46:11;;;;;;;66.30;22.83;;;-4.00;99.90;;;;;;5074240;28;20058;-70
2022/03/04 05:48:37;;;;;;;41.22;20.52;;;-3.80;99.90;;;;;;5074262;28;20060;-70
2022/03/04 05:51:03;;;;;;;44.65;21.10;;;-3.70;99.90;;;;;;5074036;28;20032;-70
2022/03/04 05:53:30;;;;;;;44.53;20.40;;;-3.60;99.90;;;;;;5073917;28;20029;-70
2022/03/04 05:55:55;;;;;;;46.45;21.55;;;-3.50;99.90;;;;;;5074051;28;20353;-70
2022/03/04 05:58:21;;;;;;;39.17;21.02;;;-3.50;99.90;;;;;;5074583;28;20032;-70
2022/03/04 06:00:46;;;;;;;48.67;22.83;;;-3.50;99.90;;;;;;5073667;28;20146;-70
2022/03/04 06:03:12;;;;;;;47.80;21.77;;;-3.40;99.90;;;;;;5073679;28;20386;-70
2022/03/04 06:05:38;;;;;;;54.03;24.60;;;-3.40;99.90;;;;;;5073662;28;20385;-70
2022/03/04 06:08:04;;;;;;;56.10;24.80;;;-3.30;99.90;;;;;;5073904;28;20108;-70
2022/03/04 06:10:29;;;;;;;52.78;25.13;;;-3.30;99.90;;;;;;5073891;28;20387;-70
2022/03/04 06:12:55;;;;;;;62.47;26.42;;;-3.20;99.90;;;;;;5073477;28;20151;-70
2022/03/04 06:15:20;;;;;;;58.63;24.27;;;-3.20;99.90;;;;;;5073501;28;20412;-70
2022/03/04 06:17:47;;;;;;;54.25;24.77;;;-3.10;99.90;;;;;;5073507;28;20025;-70
2022/03/04 06:20:13;;;;;;;56.22;24.77;;;-3.10;99.90;;;;;;5073361;28;20051;-70
2022/03/04 06:22:39;;;;;;;62.38;25.88;;;-3.00;99.90;;;;;;5073690;28;20376;-70
2022/03/04 06:25:04;;;;;;;57.63;21.70;;;-3.00;99.90;;;;;;5073945;28;20025;-70
2022/03/04 06:27:30;;;;;;;43.42;22.35;;;-2.90;99.90;;;;;;5073363;28;20096;-70
2022/03/04 06:29:56;;;;;;;41.17;20.92;;;-2.80;99.90;;;;;;5072959;28;20024;-71
2022/03/04 06:32:21;;;;;;;44.13;19.60;;;-2.80;99.90;;;;;;5073286;28;20028;-70
2022/03/04 06:34:47;;;;;;;37.10;21.25;;;-2.80;99.90;;;;;;5073530;28;20107;-69
2022/03/04 06:37:13;;;;;;;33.40;18.92;;;-2.70;99.90;;;;;;5073313;28;20031;-70
2022/03/04 06:39:39;;;;;;;42.20;20.05;;;-2.70;99.90;;;;;;5073416;28;20469;-70
2022/03/04 06:42:05;;;;;;;74.70;22.15;;;-2.60;99.90;;;;;;5071933;28;20480;-70
2022/03/04 06:44:31;;;;;;;67.10;21.98;;;-2.60;99.90;;;;;;5073238;28;20025;-70
2022/03/04 06:46:56;;;;;;;77.75;24.33;;;-2.50;99.90;;;;;;5073257;28;20059;-70
2022/03/04 06:49:22;;;;;;;34.60;21.15;;;-2.50;99.90;;;;;;5073361;28;20035;-70
2022/03/04 06:51:47;;;;;;;68.47;20.52;;;-2.40;99.90;;;;;;5073086;28;20020;-70
2022/03/04 06:54:13;;;;;;;54.85;21.20;;;-2.40;99.90;;;;;;5073702;28;20487;-70
2022/03/04 06:56:39;;;;;;;52.50;22.75;;;-2.30;99.90;;;;;;5073434;28;20032;-70
2022/03/04 06:59:04;;;;;;;35.72;20.63;;;-2.20;99.90;;;;;;5073092;28;20017;-70
2022/03/04 07:01:30;;;;;;;43.65;20.17;;;-2.10;99.90;;;;;;5073278;28;20021;-70
2022/03/04 07:03:55;;;;;;;81.65;23.38;;;-2.00;99.90;;;;;;5073368;28;20464;-70
2022/03/04 07:06:21;;;;;;;40.22;22.60;;;-2.00;99.90;;;;;;5073595;28;20033;-70
2022/03/04 07:08:46;;;;;;;44.45;21.85;;;-1.90;99.90;;;;;;5073013;28;20032;-70
2022/03/04 07:11:12;;;;;;;41.22;22.20;;;-1.80;99.90;;;;;;5072815;28;20037;-70
2022/03/04 07:13:37;;;;;;;33.50;21.33;;;-1.70;99.90;;;;;;5072853;28;20502;-71
2022/03/04 07:16:03;;;;;;;46.22;22.92;;;-1.60;99.90;;;;;;5073209;28;20025;-70
2022/03/04 07:18:29;;;;;;;36.53;22.30;;;-1.50;99.90;;;;;;5071649;28;20029;-70
2022/03/04 07:21:02;;;;;;;70.55;24.77;;;-1.40;99.90;;;;;;5072954;28;20020;-70
2022/03/04 07:23:27;;;;;;;59.70;24.90;;;-1.30;99.90;;;;;;5072975;28;20074;-70
2022/03/04 07:25:53;;;;;;;46.05;22.30;;;-1.20;99.90;;;;;;5073024;28;20028;-70
2022/03/04 07:28:19;;;;;;;41.33;23.40;;;-1.10;99.90;;;;;;5072818;28;20357;-70
2022/03/04 07:30:45;;;;;;;45.17;23.65;;;-1.10;99.90;;;;;;5072359;28;20111;-70
2022/03/04 07:33:10;;;;;;;49.83;23.17;;;-1.00;99.90;;;;;;5072689;28;20032;-70
2022/03/04 07:35:41;;;;;;;49.28;23.92;;;-0.90;99.90;;;;;;5072770;28;20021;-70
2022/03/04 07:38:07;;;;;;;36.20;22.05;;;-0.80;99.90;;;;;;5072769;28;20016;-71
2022/03/04 07:40:32;;;;;;;40.10;21.88;;;-0.80;99.90;;;;;;5072627;28;20357;-71
2022/03/04 07:42:58;;;;;;;74.63;23.67;;;-0.70;99.90;;;;;;5075731;28;20025;-70
2022/03/04 07:45:24;;;;;;;40.33;23.23;;;-0.60;99.90;;;;;;5076264;28;20021;-70
2022/03/04 07:47:50;;;;;;;50.90;23.05;;;-0.50;99.90;;;;;;5074938;28;20024;-71
2022/03/04 07:50:16;;;;;;;41.63;23.13;;;-0.40;99.90;;;;;;5076085;28;20043;-71
2022/03/04 07:52:43;;;;;;;45.05;23.35;;;-0.20;99.90;;;;;;5076077;28;20379;-71
2022/03/04 07:55:10;;;;;;;49.60;22.77;;;-0.20;99.90;;;;;;5076080;28;20071;-71
2022/03/04 07:57:37;;;;;;;76.93;23.30;;;-0.10;99.90;;;;;;5076409;28;20055;-71
2022/03/04 08:00:05;;;;;;;55.20;22.30;;;-0.10;99.90;;;;;;5075952;28;20024;-71
2022/03/04 08:02:31;;;;;;;83.22;22.55;;;0.00;99.90;;;;;;5076236;28;20441;-71
2022/03/04 08:04:56;;;;;;;42.03;22.15;;;0.00;99.90;;;;;;5075900;28;20095;-71
2022/03/04 08:07:22;;;;;;;49.97;21.45;;;0.10;99.90;;;;;;5075868;28;20473;-71
2022/03/04 08:09:47;;;;;;;77.78;21.40;;;0.20;99.90;;;;;;5075659;28;20032;-71
2022/03/04 08:12:13;;;;;;;59.38;21.45;;;0.20;99.90;;;;;;5075725;28;20472;-71
2022/03/04 08:14:39;;;;;;;58.20;21.45;;;0.20;99.90;;;;;;5076003;28;20021;-71
2022/03/04 08:17:05;;;;;;;37.05;20.35;;;0.30;99.90;;;;;;5075672;28;20013;-71
2022/03/04 08:19:33;;;;;;;49.00;19.40;;;0.40;99.90;;;;;;5075874;28;20077;-71
2022/03/04 08:21:58;;;;;;;32.92;19.38;;;0.40;99.90;;;;;;5075747;28;20032;-71
2022/03/04 08:24:24;;;;;;;114.03;21.05;;;0.50;99.90;;;;;;5075814;28;20407;-71
2022/03/04 08:26:50;;;;;;;161.88;21.65;;;0.50;99.90;;;;;;5076024;28;20029;-71
2022/03/04 08:29:16;;;;;;;58.63;19.60;;;0.60;99.90;;;;;;5075678;28;20028;-70
2022/03/04 08:31:41;;;;;;;37.25;19.10;;;0.60;99.90;;;;;;5075341;28;20024;-71
2022/03/04 08:34:07;;;;;;;64.72;19.95;;;0.70;99.90;;;;;;5075345;28;20097;-71
2022/03/04 08:36:32;;;;;;;53.75;20.88;;;0.80;99.90;;;;;;5074049;28;20021;-69
2022/03/04 08:39:03;;;;;;;53.28;20.27;;;1.00;99.90;;;;;;5075318;28;20108;-71
2022/03/04 08:41:30;;;;;;;70.93;22.05;;;1.10;99.90;;;;;;5075166;28;20503;-71
2022/03/04 08:43:55;;;;;;;79.22;22.30;;;1.20;99.90;;;;;;5075157;28;20093;-70
2022/03/04 08:46:21;;;;;;;172.82;21.02;;;1.30;99.90;;;;;;5075133;28;20476;-70
2022/03/04 08:48:47;;;;;;;40.95;19.70;;;1.50;99.90;;;;;;5075279;28;20369;-70
2022/03/04 08:51:13;;;;;;;48.95;20.20;;;1.60;99.90;;;;;;5075926;28;20020;-71
2022/03/04 08:53:38;;;;;;;148.07;20.77;;;1.60;99.90;;;;;;5074731;28;20062;-71
2022/03/04 08:56:04;;;;;;;64.53;17.85;;;1.60;99.90;;;;;;5075256;28;20108;-71
2022/03/04 08:58:30;;;;;;;126.65;17.90;;;1.60;99.90;;;;;;5075508;28;20028;-71
2022/03/04 09:00:56;;;;;;;43.88;16.30;;;1.70;99.90;;;;;;5074737;28;20024;-71
2022/03/04 09:03:21;;;;;;;49.70;18.30;;;1.80;99.90;;;;;;5074791;28;20040;-72
2022/03/04 09:05:47;;;;;;;40.40;17.52;;;1.90;99.90;;;;;;5074751;28;20024;-71
2022/03/04 09:08:13;;;;;;;71.32;18.80;;;2.00;99.90;;;;;;5074675;28;20033;-71
2022/03/04 09:10:39;;;;;;;83.22;17.38;;;2.00;99.90;;;;;;5075039;28;20044;-71
2022/03/04 09:13:04;;;;;;;35.92;15.45;;;2.10;99.90;;;;;;5074487;28;20029;-71
2022/03/04 09:15:30;;;;;;;66.45;16.73;;;2.20;99.90;;;;;;5074528;28;20020;-71
2022/03/04 09:17:56;;;;;;;31.17;15.45;;;2.30;99.90;;;;;;5074492;28;20023;-71
2022/03/04 09:20:22;;;;;;;64.32;16.67;;;2.40;99.90;;;;;;5074513;28;20443;-71
2022/03/04 09:22:47;;;;;;;27.77;16.00;;;2.40;99.90;;;;;;5074417;28;20028;-71
2022/03/04 09:25:14;;;;;;;69.00;16.95;;;2.50;99.90;;;;;;5074338;28;20388;-71
2022/03/04 09:27:41;;;;;;;29.45;17.00;;;2.50;99.90;;;;;;5074294;28;20508;-71
2022/03/04 09:30:07;;;;;;;49.03;17.02;;;2.60;99.90;;;;;;5072941;28;20032;-71
2022/03/04 09:32:34;;;;;;;31.92;16.20;;;2.70;99.90;;;;;;5074033;28;20024;-71
2022/03/04 09:34:59;;;;;;;155.15;16.45;;;2.80;99.90;;;;;;5074435;28;20479;-71
2022/03/04 09:37:25;;;;;;;40.75;15.57;;;2.90;99.90;;;;;;5074631;28;20048;-71
2022/03/04 09:39:50;;;;;;;50.17;16.95;;;3.00;99.90;;;;;;5074030;28;20056;-71
2022/03/04 09:42:17;;;;;;;45.60;17.40;;;3.20;99.90;;;;;;5074189;28;20484;-71
2022/03/04 09:44:42;;;;;;;46.20;16.80;;;3.30;99.90;;;;;;5074042;28;20032;-71
2022/03/04 09:47:10;;;;;;;44.33;15.48;;;3.50;99.90;;;;;;5073980;28;20031;-71
2022/03/04 09:49:37;;;;;;;35.50;15.95;;;3.60;99.90;;;;;;5073919;28;20024;-71
2022/03/04 09:52:06;;;;;;;66.68;15.27;;;3.70;99.90;;;;;;5073796;28;20024;-71
2022/03/04 09:54:33;;;;;;;55.65;14.32;;;3.80;99.90;;;;;;5073801;28;20052;-71
2022/03/04 09:56:59;;;;;;;21.40;13.02;;;3.90;99.90;;;;;;5073770;28;20039;-71
2022/03/04 09:59:25;;;;;;;29.88;15.02;;;3.70;99.90;;;;;;5073677;28;20047;-71
2022/03/04 10:01:51;;;;;;;72.57;14.57;;;3.80;99.90;;;;;;5073676;28;20114;-71
2022/03/04 10:04:16;;;;;;;30.15;14.07;;;3.70;99.90;;;;;;5073481;28;20460;-71
2022/03/04 10:06:51;;;;;;;28.05;14.20;;;3.80;99.90;;;;;;5073937;28;20052;-71
2022/03/04 10:09:45;;;;;;;46.67;16.25;;;3.80;99.90;;;;;;5073584;28;20470;-71
2022/03/04 10:12:13;;;;;;;43.10;23.27;;;3.90;99.90;;;;;;5073808;28;20020;-71
2022/03/04 10:15:03;;;;;;;43.67;25.73;;;4.20;99.90;;;;;;5073808;28;20384;-71
2022/03/04 10:17:29;;;;;;;48.20;26.20;;;4.10;99.90;;;;;;5073763;28;20070;-71
2022/03/04 10:20:00;;;;;;;60.53;31.00;;;4.10;99.90;;;;;;5073404;28;20020;-71
2022/03/04 10:22:46;;;;;;;58.08;27.50;;;4.20;99.90;;;;;;5073690;28;20534;-71
2022/03/04 10:25:16;;;;;;;39.90;23.55;;;4.40;99.90;;;;;;5073433;28;20059;-71
2022/03/04 10:27:42;;;;;;;30.58;17.70;;;4.50;99.90;;;;;;5073367;28;20544;-71
2022/03/04 10:30:08;;;;;;;28.42;16.25;;;4.70;99.90;;;;;;5073728;28;20025;-71
2022/03/04 10:32:33;;;;;;;20.20;12.45;;;5.00;99.90;;;;;;5073295;28;20021;-71
2022/03/04 10:35:00;;;;;;;21.52;11.38;;;5.30;99.90;;;;;;5073303;28;20033;-71
2022/03/04 10:37:54;;;;;;;18.98;12.07;;;5.10;99.90;;;;;;5073256;28;20029;-71
2022/03/04 10:40:21;;;;;;;19.95;12.65;;;5.00;99.90;;;;;;5073329;28;20021;-71
2022/03/04 10:42:51;;;;;;;20.92;11.57;;;5.10;99.90;;;;;;5073545;28;20041;-71
2022/03/04 10:45:32;;;;;;;17.33;11.13;;;5.20;99.90;;;;;;5073272;28;20020;-71
2022/03/04 10:47:57;;;;;;;19.50;9.63;;;5.40;99.90;;;;;;5073497;28;20029;-71
2022/03/04 10:50:49;;;;;;;17.55;9.10;;;5.50;99.90;;;;;;5073206;28;20028;-71
2022/03/04 10:53:16;;;;;;;15.90;9.27;;;5.20;99.90;;;;;;5070287;28;20408;-71
2022/03/04 10:55:43;;;;;;;20.98;9.82;;;5.40;99.90;;;;;;5073187;28;20032;-72
2022/03/04 10:58:49;;;;;;;18.27;9.95;;;5.60;99.90;;;;;;5073583;28;20020;-71
2022/03/04 11:01:19;;;;;;;17.85;9.65;;;5.70;99.90;;;;;;5051647;28;20029;-72
2022/03/04 11:03:45;;;;;;;18.02;10.73;;;5.90;99.90;;;;;;5051532;28;20444;-72
2022/03/04 11:06:13;;;;;;;17.17;8.50;;;6.00;99.90;;;;;;5062519;28;20054;-72
2022/03/04 11:08:39;;;;;;;16.05;9.15;;;6.10;99.90;;;;;;5072956;28;20561;-72
2022/03/04 11:11:07;;;;;;;16.85;8.90;;;6.40;99.90;;;;;;5071580;28;20115;-72
2022/03/04 11:13:34;;;;;;;15.98;8.02;;;6.50;99.90;;;;;;5073174;28;20024;-72
2022/03/04 11:16:00;;;;;;;16.88;8.88;;;6.70;99.90;;;;;;5073092;28;20126;-72
2022/03/04 11:18:27;;;;;;;12.57;8.55;;;6.80;99.90;;;;;;5076843;28;20028;-72
2022/03/04 11:20:55;;;;;;;14.90;9.45;;;7.00;99.90;;;;;;5076671;28;20033;-72
2022/03/04 11:23:29;;;;;;;21.67;9.88;;;7.10;99.90;;;;;;5076926;28;20027;-72
2022/03/04 11:26:14;;;;;;;17.70;8.18;;;7.40;99.90;;;;;;5076743;28;20033;-72
2022/03/04 11:28:43;;;;;;;15.32;6.47;;;7.80;99.90;;;;;;5072509;28;20043;-72
2022/03/04 11:31:11;;;;;;;17.65;6.95;;;7.80;99.90;;;;;;5076592;28;20104;-72
2022/03/04 11:33:43;;;;;;;12.65;7.57;;;7.70;99.90;;;;;;5076450;28;20472;-71
2022/03/04 11:36:25;;;;;;;12.27;6.22;;;7.90;99.90;;;;;;5076458;28;20511;-72
2022/03/04 11:38:50;;;;;;;9.65;6.18;;;8.10;99.90;;;;;;5076415;28;20096;-72
2022/03/04 11:41:34;;;;;;;11.15;6.22;;;8.20;99.90;;;;;;5076256;28;20056;-72
2022/03/04 11:44:20;;;;;;;11.27;6.20;;;8.40;99.90;;;;;;5076324;28;20103;-71
2022/03/04 11:46:50;;;;;;;10.15;5.75;;;8.80;99.90;;;;;;5074991;28;20032;-71
2022/03/04 11:49:38;;;;;;;9.15;5.57;;;8.90;99.90;;;;;;5076422;28;20519;-72
2022/03/04 11:52:19;;;;;;;9.15;5.68;;;8.90;99.90;;;;;;5076105;28;20077;-71
2022/03/04 11:54:45;;;;;;;9.18;5.72;;;9.00;99.90;;;;;;5074893;28;20020;-72
2022/03/04 11:57:18;;;;;;;10.45;4.65;;;9.40;99.90;;;;;;5076290;28;20021;-71
2022/03/04 12:00:12;;;;;;;8.13;4.53;;;9.70;99.90;;;;;;5075985;28;20380;-72
2022/03/04 12:02:48;;;;;;;7.27;4.50;;;10.00;99.90;;;;;;5076040;28;20031;-72
2022/03/04 12:05:19;;;;;;;5.97;4.32;;;10.20;99.90;;;;;;5074846;28;20612;-72
2022/03/04 12:08:06;;;;;;;6.32;4.60;;;10.40;99.90;;;;;;5076269;28;20028;-72
2022/03/04 12:10:45;;;;;;;6.57;4.05;;;10.70;99.90;;;;;;5075801;28;20044;-72
2022/03/04 12:13:18;;;;;;;6.40;4.15;;;11.00;99.90;;;;;;5075742;28;20392;-72
2022/03/04 12:15:51;;;;;;;6.47;3.88;;;11.10;99.90;;;;;;5075772;28;20017;-72
2022/03/04 12:18:27;;;;;;;7.38;3.70;;;11.30;99.90;;;;;;5075713;28;20025;-72
2022/03/04 12:20:58;;;;;;;7.10;4.28;;;11.20;99.90;;;;;;5075699;28;20029;-72
2022/03/04 12:23:30;;;;;;;6.65;3.85;;;11.20;99.90;;;;;;5074312;28;20492;-72
2022/03/04 12:25:58;;;;;;;6.82;4.10;;;11.10;99.90;;;;;;5075744;28;20081;-72
2022/03/04 12:28:32;;;;;;;7.15;3.28;;;11.30;99.90;;;;;;5075480;28;20051;-72
2022/03/04 12:31:00;;;;;;;6.93;3.97;;;11.40;99.90;;;;;;5075784;28;20459;-72
2022/03/04 12:33:36;;;;;;;4.55;3.78;;;11.60;99.90;;;;;;5075595;28;20070;-72